Terminal Aerodrome Forecast
Issued by NWS

Home | Current Version | Previous Version | Graphics & Text | Print | Product List | Glossary Off
Versions: 1 2 3 4 5 6 7 8 9 10 11 12 13 14 15 16 17 18 19 20 21 22 23 24 25 26 27 28 29 30 31 32 33 34 35 36 37 38 39 40 41

000
FTUS43 KDDC 241121
TAFGCK
TAF
KGCK 241121Z 2412/2512 VRB06KT 6SM -SHRA OVC035
     FM241600 18012KT P6SM VCSH OVC025
     FM242000 17012KT P6SM VCTS BKN030CB
     FM250500 17008KT P6SM -SHRA VCTS BKN050CB=

USA.gov is the U.S. government's official web portal to all federal, state and local government web resources and services.